createdAt,value
2019-05-26T00:00:32.195Z,95375.19
2019-05-26T00:02:59.575Z,95379.19
2019-05-26T00:05:26.950Z,95374.03
2019-05-26T00:07:54.312Z,95378.41
2019-05-26T00:10:21.600Z,95375.85
2019-05-26T00:12:48.950Z,95373.14
2019-05-26T00:15:18.487Z,95374.23
2019-05-26T00:17:45.871Z,95375.26
2019-05-26T00:20:13.701Z,95374.22
2019-05-26T00:22:41.033Z,95365.63
2019-05-26T00:25:08.677Z,95375.12
2019-05-26T00:27:36.096Z,95368.75
2019-05-26T00:30:03.819Z,95369.94
2019-05-26T00:32:31.144Z,95374.52
2019-05-26T00:34:58.490Z,95366.67
2019-05-26T00:37:25.939Z,95364.47
2019-05-26T00:39:53.280Z,95368.92
2019-05-26T00:42:20.891Z,95358.28
2019-05-26T00:44:48.235Z,95359.17
2019-05-26T00:47:15.594Z,95358.47
2019-05-26T00:49:43.091Z,95361.00
2019-05-26T00:52:10.430Z,95356.28
2019-05-26T00:54:37.749Z,95348.59
2019-05-26T00:57:05.109Z,95353.56
2019-05-26T00:59:32.455Z,95355.80
2019-05-26T01:01:59.855Z,95358.47
2019-05-26T01:04:27.425Z,95357.26
2019-05-26T01:06:54.826Z,95357.43
2019-05-26T01:09:22.099Z,95352.42
2019-05-26T01:11:49.452Z,95351.51
2019-05-26T01:14:16.810Z,95351.58
2019-05-26T01:16:44.195Z,95347.73
2019-05-26T01:19:11.547Z,95347.25
2019-05-26T01:21:38.994Z,95355.42
2019-05-26T01:24:06.294Z,95353.87
2019-05-26T01:26:33.674Z,95352.97
2019-05-26T01:29:00.989Z,95349.37
2019-05-26T01:31:28.349Z,95356.60
2019-05-26T01:33:55.850Z,95358.18
2019-05-26T01:36:23.212Z,95363.20
2019-05-26T01:38:50.541Z,95365.01
2019-05-26T01:41:17.860Z,95362.94
2019-05-26T01:43:45.214Z,95364.11
2019-05-26T01:46:12.551Z,95363.34
2019-05-26T01:48:39.950Z,95369.06
2019-05-26T01:51:07.271Z,95362.92
2019-05-26T01:53:34.611Z,95363.82
2019-05-26T01:56:02.005Z,95367.81
2019-05-26T01:58:29.330Z,95361.58
2019-05-26T02:00:56.650Z,95360.41
2019-05-26T02:03:24.013Z,95359.64
2019-05-26T02:05:51.370Z,95370.40
2019-05-26T02:08:18.712Z,95371.06
2019-05-26T02:10:46.031Z,95371.73
2019-05-26T02:13:13.393Z,95370.02
2019-05-26T02:15:40.686Z,95369.81
2019-05-26T02:18:09.349Z,95371.20
2019-05-26T02:20:36.767Z,95369.99
2019-05-26T02:23:04.569Z,95371.93
2019-05-26T02:25:31.871Z,95374.50
2019-05-26T02:27:59.238Z,95372.59
2019-05-26T02:30:26.684Z,95372.21
2019-05-26T02:32:54.010Z,95369.89
2019-05-26T02:35:21.463Z,95372.87
2019-05-26T02:37:48.804Z,95375.67
2019-05-26T02:40:17.969Z,95375.96
2019-05-26T02:42:45.335Z,95372.97
2019-05-26T02:45:16.318Z,95373.59
2019-05-26T02:47:44.152Z,95369.30
2019-05-26T02:50:12.194Z,95372.91
2019-05-26T02:52:39.534Z,95368.99
2019-05-26T02:55:07.200Z,95366.36
2019-05-26T02:57:34.580Z,95367.26
2019-05-26T03:00:01.907Z,95366.64
2019-05-26T03:02:29.273Z,95368.69
2019-05-26T03:04:56.611Z,95369.25
2019-05-26T03:07:25.891Z,95368.39
2019-05-26T03:09:55.050Z,95362.77
2019-05-26T03:12:24.351Z,95369.66
2019-05-26T03:14:52.255Z,95370.14
2019-05-26T03:17:20.794Z,95366.60
2019-05-26T03:19:48.680Z,95373.53
2019-05-26T03:22:19.329Z,95374.08
2019-05-26T03:24:49.933Z,95372.70
2019-05-26T03:27:17.374Z,95374.36
2019-05-26T03:29:44.671Z,95374.70
2019-05-26T03:32:12.040Z,95374.36
2019-05-26T03:34:39.396Z,95376.89
2019-05-26T03:37:06.871Z,95375.84
2019-05-26T03:39:44.692Z,95375.67
2019-05-26T03:42:03.605Z,95384.57
2019-05-26T03:44:30.976Z,95385.98
2019-05-26T03:46:58.279Z,95383.56
2019-05-26T03:49:25.674Z,95386.53
2019-05-26T03:51:53.010Z,95389.37
2019-05-26T03:54:20.400Z,95399.47
2019-05-26T03:56:47.736Z,95399.44
2019-05-26T03:59:15.051Z,95395.49
2019-05-26T04:01:42.391Z,95396.41
2019-05-26T04:04:09.711Z,95394.02
2019-05-26T04:06:37.105Z,95392.22
2019-05-26T04:09:06.491Z,95388.16
2019-05-26T04:11:33.870Z,95385.92
2019-05-26T04:14:01.144Z,95388.09
2019-05-26T04:16:28.503Z,95390.53
2019-05-26T04:18:55.830Z,95390.04
2019-05-26T04:21:23.170Z,95393.80
2019-05-26T04:23:50.549Z,95386.27
2019-05-26T04:26:18.010Z,95395.12
2019-05-26T04:28:45.416Z,95390.31
2019-05-26T04:31:12.732Z,95393.22
2019-05-26T04:33:40.077Z,95396.10
2019-05-26T04:36:07.409Z,95396.41
2019-05-26T04:38:34.739Z,95401.88
2019-05-26T04:41:02.465Z,95400.73
2019-05-26T04:43:29.782Z,95406.34
2019-05-26T04:45:57.123Z,95406.59
2019-05-26T04:48:24.631Z,95402.72
2019-05-26T04:50:51.953Z,95402.23
2019-05-26T04:53:19.282Z,95406.04
2019-05-26T04:55:46.611Z,95404.98
2019-05-26T04:58:13.912Z,95404.34
2019-05-26T05:00:41.255Z,95401.26
2019-05-26T05:03:08.618Z,95401.22
2019-05-26T05:05:35.951Z,95405.29
2019-05-26T05:08:03.300Z,95409.08
2019-05-26T05:10:41.852Z,95408.46
2019-05-26T05:12:59.899Z,95406.11
2019-05-26T05:15:27.238Z,95403.69
2019-05-26T05:17:55.760Z,95404.52
2019-05-26T05:20:23.080Z,95402.34
2019-05-26T05:22:50.400Z,95397.89
2019-05-26T05:25:17.769Z,95399.70
2019-05-26T05:27:46.028Z,95401.05
2019-05-26T05:30:13.523Z,95408.98
2019-05-26T05:32:41.250Z,95402.95
2019-05-26T05:35:08.924Z,95409.70
2019-05-26T05:37:36.267Z,95404.78
2019-05-26T05:40:04.505Z,95404.52
2019-05-26T05:42:31.930Z,95408.29
2019-05-26T05:44:59.261Z,95405.82
2019-05-26T05:47:28.412Z,95401.41
2019-05-26T05:49:56.975Z,95405.62
2019-05-26T05:52:25.371Z,95403.81
2019-05-26T05:54:52.751Z,95409.98
2019-05-26T05:57:20.671Z,95406.52
2019-05-26T05:59:48.412Z,95409.20
2019-05-26T06:02:15.777Z,95408.16
2019-05-26T06:04:43.110Z,95405.46
2019-05-26T06:07:10.444Z,95407.70
2019-05-26T06:09:37.817Z,95416.56
2019-05-26T06:12:05.170Z,95407.95
2019-05-26T06:14:32.598Z,95404.25
2019-05-26T06:17:00.111Z,95403.84
2019-05-26T06:19:27.513Z,95406.38
2019-05-26T06:21:54.982Z,95406.19
2019-05-26T06:24:22.320Z,95409.89
2019-05-26T06:26:49.750Z,95411.08
2019-05-26T06:29:17.055Z,95411.89
2019-05-26T06:31:44.766Z,95416.73
2019-05-26T06:34:12.216Z,95413.95
2019-05-26T06:36:39.628Z,95414.59
2019-05-26T06:39:07.761Z,95412.58
2019-05-26T06:41:35.139Z,95413.03
2019-05-26T06:44:02.512Z,95420.83
2019-05-26T06:46:30.012Z,95419.62
2019-05-26T06:48:57.354Z,95421.28
2019-05-26T06:51:25.180Z,95423.38
2019-05-26T06:53:52.504Z,95417.59
2019-05-26T06:56:19.932Z,95417.33
2019-05-26T06:58:47.350Z,95414.81
2019-05-26T07:01:14.673Z,95419.55
2019-05-26T07:03:42.049Z,95413.44
2019-05-26T07:06:09.409Z,95414.25
2019-05-26T07:08:36.850Z,95411.91
2019-05-26T07:11:04.256Z,95416.16
2019-05-26T07:13:31.666Z,95415.92
2019-05-26T07:15:59.061Z,95416.96
2019-05-26T07:18:26.436Z,95418.00
2019-05-26T07:20:53.877Z,95412.14
2019-05-26T07:23:21.234Z,95408.77
2019-05-26T07:25:48.674Z,95413.33
2019-05-26T07:28:16.057Z,95409.74
2019-05-26T07:30:43.349Z,95412.72
2019-05-26T07:33:10.726Z,95418.46
2019-05-26T07:35:38.080Z,95412.50
2019-05-26T07:38:05.413Z,95406.47
2019-05-26T07:40:32.732Z,95411.95
2019-05-26T07:43:00.075Z,95411.50
2019-05-26T07:45:28.664Z,95410.52
2019-05-26T07:47:56.012Z,95412.20
2019-05-26T07:50:23.432Z,95415.19
2019-05-26T07:52:50.770Z,95411.30
2019-05-26T07:55:18.187Z,95409.62
2019-05-26T07:57:46.634Z,95403.45
2019-05-26T08:00:14.030Z,95412.59
2019-05-26T08:02:41.369Z,95407.65
2019-05-26T08:05:09.739Z,95407.38
2019-05-26T08:07:37.110Z,95400.97
2019-05-26T08:10:04.992Z,95404.50
2019-05-26T08:12:33.567Z,95405.81
2019-05-26T08:15:00.901Z,95406.55
2019-05-26T08:17:28.282Z,95396.71
2019-05-26T08:19:55.632Z,95400.03
2019-05-26T08:22:23.029Z,95401.20
2019-05-26T08:24:50.432Z,95401.17
2019-05-26T08:27:17.900Z,95400.12
2019-05-26T08:29:45.259Z,95399.56
2019-05-26T08:32:15.180Z,95394.48
2019-05-26T08:34:42.631Z,95395.67
2019-05-26T08:37:10.077Z,95391.20
2019-05-26T08:39:37.491Z,95391.06
2019-05-26T08:42:04.861Z,95387.61
2019-05-26T08:44:32.199Z,95396.43
2019-05-26T08:46:59.537Z,95391.92
2019-05-26T08:49:26.889Z,95392.11
2019-05-26T08:51:54.244Z,95395.94
2019-05-26T08:54:21.693Z,95395.67
2019-05-26T08:56:49.005Z,95393.52
2019-05-26T08:59:16.426Z,95392.92
2019-05-26T09:01:43.789Z,95389.60
2019-05-26T09:04:11.096Z,95392.30
2019-05-26T09:06:38.434Z,95387.86
2019-05-26T09:09:06.520Z,95382.63
2019-05-26T09:11:33.833Z,95379.82
2019-05-26T09:14:01.279Z,95381.37
2019-05-26T09:16:28.641Z,95381.30
2019-05-26T09:18:55.904Z,95376.74
2019-05-26T09:21:23.260Z,95385.18
2019-05-26T09:23:50.649Z,95379.66
2019-05-26T09:26:18.088Z,95386.28
2019-05-26T09:28:45.344Z,95381.75
2019-05-26T09:31:12.665Z,95378.24
2019-05-26T09:33:40.036Z,95379.66
2019-05-26T09:36:07.318Z,95373.80
2019-05-26T09:38:35.005Z,95371.65
2019-05-26T09:41:02.311Z,95366.47
2019-05-26T09:43:29.657Z,95361.55
2019-05-26T09:45:57.001Z,95358.05
2019-05-26T09:48:24.348Z,95357.26
2019-05-26T09:50:51.717Z,95358.45
2019-05-26T09:53:19.106Z,95363.54
2019-05-26T09:55:46.472Z,95356.66
2019-05-26T09:58:13.787Z,95352.83
2019-05-26T10:00:43.084Z,95353.84
2019-05-26T10:03:10.382Z,95344.84
2019-05-26T10:05:37.743Z,95343.00
2019-05-26T10:08:05.232Z,95336.95
2019-05-26T10:10:32.690Z,95336.64
2019-05-26T10:13:00.041Z,95341.31
2019-05-26T10:15:27.438Z,95326.91
2019-05-26T10:17:54.907Z,95320.77
2019-05-26T10:20:23.626Z,95314.14
2019-05-26T10:22:50.966Z,95318.95
2019-05-26T10:25:18.302Z,95311.98
2019-05-26T10:27:45.672Z,95304.58
2019-05-26T10:30:13.529Z,95301.57
2019-05-26T10:32:41.027Z,95297.72
2019-05-26T10:35:08.574Z,95296.59
2019-05-26T10:37:35.939Z,95296.20
2019-05-26T10:40:03.830Z,95290.80
2019-05-26T10:42:31.257Z,95288.84
2019-05-26T10:44:58.630Z,95283.45
2019-05-26T10:47:25.960Z,95272.84
2019-05-26T10:49:53.244Z,95270.13
2019-05-26T10:52:20.589Z,95270.22
2019-05-26T10:54:47.918Z,95273.05
2019-05-26T10:57:15.330Z,95281.51
2019-05-26T10:59:42.616Z,95282.99
2019-05-26T11:02:09.983Z,95273.35
2019-05-26T11:04:37.298Z,95270.43
2019-05-26T11:07:04.754Z,95269.47
2019-05-26T11:09:32.185Z,95265.07
2019-05-26T11:12:00.518Z,95265.67
2019-05-26T11:14:27.961Z,95254.77
2019-05-26T11:16:55.408Z,95259.60
2019-05-26T11:19:22.778Z,95248.62
2019-05-26T11:21:50.184Z,95246.88
2019-05-26T11:24:18.418Z,95250.29
2019-05-26T11:26:45.854Z,95244.06
2019-05-26T11:29:13.224Z,95236.89
2019-05-26T11:31:40.515Z,95232.59
2019-05-26T11:34:07.911Z,95231.28
2019-05-26T11:36:35.282Z,95230.75
2019-05-26T11:39:04.777Z,95221.48
2019-05-26T11:41:32.221Z,95219.13
2019-05-26T11:43:59.586Z,95209.69
2019-05-26T11:46:26.939Z,95205.59
2019-05-26T11:48:54.285Z,95207.29
2019-05-26T11:51:21.657Z,95203.33
2019-05-26T11:53:49.049Z,95198.70
2019-05-26T11:56:16.450Z,95195.91
2019-05-26T11:58:43.749Z,95199.99
2019-05-26T12:01:11.112Z,95196.46
2019-05-26T12:03:38.505Z,95191.63
2019-05-26T12:06:05.834Z,95193.39
2019-05-26T12:08:33.181Z,95194.16
2019-05-26T12:11:00.541Z,95191.65
2019-05-26T12:13:27.880Z,95183.77
2019-05-26T12:15:55.251Z,95182.53
2019-05-26T12:18:22.596Z,95177.27
2019-05-26T12:20:50.034Z,95173.45
2019-05-26T12:23:17.426Z,95168.92
2019-05-26T12:25:44.776Z,95155.75
2019-05-26T12:28:12.179Z,95149.10
2019-05-26T12:30:39.470Z,95149.38
2019-05-26T12:33:09.620Z,95142.76
2019-05-26T12:35:44.963Z,95150.05
2019-05-26T12:38:12.650Z,95134.45
2019-05-26T12:40:40.164Z,95122.76
2019-05-26T12:43:07.551Z,95119.91
2019-05-26T12:45:34.903Z,95115.00
2019-05-26T12:48:02.321Z,95112.39
2019-05-26T12:50:29.756Z,95104.25
2019-05-26T12:52:57.110Z,95114.05
2019-05-26T12:55:24.431Z,95109.39
2019-05-26T12:57:51.818Z,95106.27
2019-05-26T13:00:19.310Z,95104.42
2019-05-26T13:02:46.668Z,95101.52
2019-05-26T13:05:14.196Z,95104.42
2019-05-26T13:07:41.920Z,95094.28
2019-05-26T13:10:09.501Z,95087.24
2019-05-26T13:12:36.841Z,95086.34
2019-05-26T13:15:06.250Z,95083.13
2019-05-26T13:17:34.133Z,95081.01
2019-05-26T13:20:01.511Z,95082.23
2019-05-26T13:22:28.951Z,95075.63
2019-05-26T13:24:56.317Z,95077.36
2019-05-26T13:27:23.710Z,95076.09
2019-05-26T13:29:51.123Z,95077.66
2019-05-26T13:32:18.451Z,95072.66
2019-05-26T13:34:45.841Z,95070.86
2019-05-26T13:37:13.258Z,95069.71
2019-05-26T13:39:40.619Z,95072.56
2019-05-26T13:42:08.032Z,95063.77
2019-05-26T13:44:35.424Z,95070.53
2019-05-26T13:47:02.923Z,95070.09
2019-05-26T13:49:30.431Z,95067.92
2019-05-26T13:51:57.818Z,95072.45
2019-05-26T13:54:25.188Z,95060.69
2019-05-26T13:56:52.678Z,95066.75
2019-05-26T13:59:20.158Z,95062.75
2019-05-26T14:01:47.558Z,95062.02
2019-05-26T14:04:16.098Z,95070.64
2019-05-26T14:06:43.488Z,95069.97
2019-05-26T14:09:10.954Z,95072.80
2019-05-26T14:11:38.414Z,95066.36
2019-05-26T14:14:05.851Z,95065.97
2019-05-26T14:16:33.906Z,95066.47
2019-05-26T14:19:02.045Z,95071.30
2019-05-26T14:21:29.435Z,95067.13
2019-05-26T14:23:57.277Z,95069.15
2019-05-26T14:26:24.656Z,95064.20
2019-05-26T14:28:52.015Z,95068.72
2019-05-26T14:31:19.481Z,95062.59
2019-05-26T14:33:46.899Z,95066.75
2019-05-26T14:36:14.323Z,95069.77
2019-05-26T14:38:43.538Z,95071.94
2019-05-26T14:41:13.361Z,95068.42
2019-05-26T14:43:40.931Z,95069.59
2019-05-26T14:46:08.359Z,95065.27
2019-05-26T14:48:35.772Z,95067.81
2019-05-26T14:51:03.829Z,95066.19
2019-05-26T14:53:33.459Z,95064.63
2019-05-26T14:56:01.306Z,95060.70
2019-05-26T14:58:28.698Z,95061.94
2019-05-26T15:00:56.073Z,95060.35
2019-05-26T15:03:23.566Z,95055.08
2019-05-26T15:06:05.133Z,95053.69
2019-05-26T15:08:21.136Z,95051.33
2019-05-26T15:10:48.596Z,95053.38
2019-05-26T15:13:16.012Z,95051.64
2019-05-26T15:15:45.736Z,95048.84
2019-05-26T15:18:14.364Z,95043.73
2019-05-26T15:20:41.723Z,95044.14
2019-05-26T15:23:09.135Z,95041.14
2019-05-26T15:25:36.579Z,95033.56
2019-05-26T15:28:03.967Z,95035.12
2019-05-26T15:30:31.454Z,95037.44
2019-05-26T15:32:58.872Z,95034.85
2019-05-26T15:35:26.266Z,95032.48
2019-05-26T15:37:56.478Z,95027.70
2019-05-26T15:40:23.880Z,95027.81
2019-05-26T15:42:51.285Z,95032.18
2019-05-26T15:45:20.216Z,95029.38
2019-05-26T15:47:47.604Z,95023.89
2019-05-26T15:50:14.956Z,95014.94
2019-05-26T15:52:43.108Z,95017.42
2019-05-26T15:55:10.847Z,95019.16
2019-05-26T15:57:38.210Z,95014.80
2019-05-26T16:00:05.793Z,95010.17
2019-05-26T16:02:33.289Z,95008.67
2019-05-26T16:05:01.927Z,95004.36
2019-05-26T16:07:29.670Z,94999.63
2019-05-26T16:09:57.088Z,94999.43
2019-05-26T16:12:24.486Z,94999.30
2019-05-26T16:14:52.953Z,95005.02
2019-05-26T16:17:20.721Z,95001.98
2019-05-26T16:19:49.190Z,94994.94
2019-05-26T16:22:17.109Z,94994.69
2019-05-26T16:24:44.563Z,94998.91
2019-05-26T16:27:19.287Z,94996.78
2019-05-26T16:29:41.244Z,94994.98
2019-05-26T16:32:08.682Z,94986.39
2019-05-26T16:34:36.121Z,94995.28
2019-05-26T16:37:04.099Z,94984.05
2019-05-26T16:39:36.832Z,94990.05
2019-05-26T16:42:01.144Z,94987.20
2019-05-26T16:44:28.525Z,94991.06
2019-05-26T16:46:57.084Z,94988.11
2019-05-26T16:49:30.199Z,94989.97
2019-05-26T16:51:57.563Z,94994.29
2019-05-26T16:54:24.921Z,94998.04
2019-05-26T16:56:53.911Z,94996.05
2019-05-26T16:59:23.178Z,95001.17
2019-05-26T17:01:50.608Z,94992.02
2019-05-26T17:04:19.340Z,94996.38
2019-05-26T17:06:47.838Z,94991.96
2019-05-26T17:09:15.706Z,94987.61
2019-05-26T17:11:43.137Z,94989.27
2019-05-26T17:14:11.504Z,94991.34
2019-05-26T17:16:40.468Z,94984.00
2019-05-26T17:19:08.407Z,94989.08
2019-05-26T17:21:35.832Z,94987.67
2019-05-26T17:24:03.852Z,94987.30
2019-05-26T17:26:31.260Z,94984.89
2019-05-26T17:28:58.755Z,94993.69
2019-05-26T17:31:26.586Z,94998.70
2019-05-26T17:33:54.545Z,94997.62
2019-05-26T17:36:23.195Z,95003.06
2019-05-26T17:38:50.673Z,95006.58
2019-05-26T17:41:18.288Z,95008.34
2019-05-26T17:43:45.754Z,95008.90
2019-05-26T17:46:15.305Z,95007.77
2019-05-26T17:48:44.167Z,95005.62
2019-05-26T17:51:11.689Z,95001.58
2019-05-26T17:53:39.548Z,95006.39
2019-05-26T17:56:06.962Z,95006.57
2019-05-26T17:58:34.991Z,95012.89
2019-05-26T18:01:02.680Z,95009.30
2019-05-26T18:03:30.194Z,95005.86
2019-05-26T18:05:57.824Z,95009.74
2019-05-26T18:08:36.129Z,95016.19
2019-05-26T18:11:02.144Z,95006.31
2019-05-26T18:13:35.668Z,95009.88
2019-05-26T18:16:04.476Z,95013.21
2019-05-26T18:18:32.174Z,95007.26
2019-05-26T18:21:00.363Z,95010.62
2019-05-26T18:23:27.843Z,95012.77
2019-05-26T18:25:55.463Z,95013.52
2019-05-26T18:28:25.448Z,95004.96
2019-05-26T18:30:53.683Z,95003.66
2019-05-26T18:33:22.010Z,95006.75
2019-05-26T18:35:56.778Z,95004.38
2019-05-26T18:38:42.783Z,95008.47
2019-05-26T18:41:10.830Z,95017.69
2019-05-26T18:43:41.045Z,95006.50
2019-05-26T18:46:12.252Z,95013.58
2019-05-26T18:48:42.605Z,95010.44
2019-05-26T18:51:12.312Z,95009.95
2019-05-26T18:53:39.822Z,95013.97
2019-05-26T18:56:18.113Z,95017.67
2019-05-26T18:58:45.744Z,95018.73
2019-05-26T19:01:14.381Z,95023.44
2019-05-26T19:03:46.586Z,95026.06
2019-05-26T19:06:31.580Z,95021.42
2019-05-26T19:09:00.136Z,95020.36
2019-05-26T19:11:28.613Z,95023.69
2019-05-26T19:13:58.843Z,95018.95
2019-05-26T19:16:35.541Z,95022.16
2019-05-26T19:19:03.611Z,95025.56
2019-05-26T19:21:31.733Z,95028.97
2019-05-26T19:23:59.407Z,95026.42
2019-05-26T19:26:30.987Z,95033.37
2019-05-26T19:28:59.083Z,95036.40
2019-05-26T19:31:26.626Z,95030.04
2019-05-26T19:33:55.688Z,95028.28
2019-05-26T19:36:26.427Z,95038.41
2019-05-26T19:41:42.385Z,95041.20
2019-05-26T19:44:09.963Z,95039.41
2019-05-26T19:46:38.736Z,95043.09
2019-05-26T19:49:06.704Z,95040.27
2019-05-26T19:51:34.780Z,95042.88
2019-05-26T19:54:06.822Z,95050.88
2019-05-26T19:56:34.316Z,95050.86
2019-05-26T19:59:03.245Z,95048.56
2019-05-26T20:01:30.712Z,95048.89
2019-05-26T20:04:07.840Z,95065.59
2019-05-26T20:06:35.747Z,95048.88
2019-05-26T20:09:10.530Z,95056.20
2019-05-26T20:11:40.600Z,95060.33
2019-05-26T20:14:08.512Z,95059.34
2019-05-26T20:16:46.118Z,95061.97
2019-05-26T20:19:13.626Z,95063.48
2019-05-26T20:21:41.524Z,95065.30
2019-05-26T20:26:56.088Z,95060.94
2019-05-26T20:29:24.719Z,95066.29
2019-05-26T20:31:52.147Z,95068.44
2019-05-26T20:34:19.541Z,95070.58
2019-05-26T20:36:46.909Z,95079.05
2019-05-26T20:39:23.713Z,95076.54
2019-05-26T20:41:51.134Z,95082.18
2019-05-26T20:44:20.869Z,95079.34
2019-05-26T20:46:48.582Z,95085.14
2019-05-26T20:49:18.155Z,95080.80
2019-05-26T20:51:46.405Z,95081.80
2019-05-26T20:54:13.792Z,95084.94
2019-05-26T20:56:41.270Z,95075.33
2019-05-26T20:59:08.598Z,95086.75
2019-05-26T21:01:36.373Z,95084.61
2019-05-26T21:04:03.874Z,95082.88
2019-05-26T21:06:31.590Z,95085.09
2019-05-26T21:08:58.961Z,95079.62
2019-05-26T21:11:26.308Z,95077.89
2019-05-26T21:13:53.630Z,95077.33
2019-05-26T21:16:20.979Z,95068.85
2019-05-26T21:18:48.312Z,95072.98
2019-05-26T21:21:15.670Z,95072.12
2019-05-26T21:23:42.997Z,95073.02
2019-05-26T21:26:10.332Z,95073.94
2019-05-26T21:28:37.679Z,95071.75
2019-05-26T21:31:05.010Z,95071.45
2019-05-26T21:33:32.350Z,95069.77
2019-05-26T21:35:59.694Z,95075.04
2019-05-26T21:38:27.033Z,95076.75
2019-05-26T21:40:54.533Z,95081.19
2019-05-26T21:43:21.970Z,95083.15
2019-05-26T21:45:49.290Z,95078.06
2019-05-26T21:48:16.619Z,95082.75
2019-05-26T21:50:44.008Z,95077.48
2019-05-26T21:53:11.274Z,95080.36
2019-05-26T21:55:38.615Z,95083.56
2019-05-26T21:58:05.951Z,95083.50
2019-05-26T22:00:40.970Z,95082.25
2019-05-26T22:03:08.349Z,95085.45
2019-05-26T22:05:35.679Z,95081.70
2019-05-26T22:08:03.059Z,95084.73
2019-05-26T22:10:30.376Z,95083.91
2019-05-26T22:12:57.778Z,95075.58
2019-05-26T22:15:25.110Z,95076.41
2019-05-26T22:17:52.452Z,95082.63
2019-05-26T22:20:19.876Z,95080.45
2019-05-26T22:22:47.199Z,95082.27
2019-05-26T22:25:14.510Z,95078.73
2019-05-26T22:27:41.839Z,95081.88
2019-05-26T22:30:10.577Z,95079.36
2019-05-26T22:32:37.911Z,95083.83
2019-05-26T22:35:05.905Z,95075.80
2019-05-26T22:37:33.211Z,95082.18
2019-05-26T22:40:00.484Z,95074.73
2019-05-26T22:42:27.830Z,95078.39
2019-05-26T22:44:55.169Z,95075.31
2019-05-26T22:47:22.510Z,95075.55
2019-05-26T22:49:49.842Z,95073.20
2019-05-26T22:52:17.932Z,95073.28
2019-05-26T22:54:45.372Z,95068.28
2019-05-26T22:57:12.682Z,95072.47
2019-05-26T22:59:39.998Z,95073.64
2019-05-26T23:02:07.309Z,95073.70
2019-05-26T23:04:34.603Z,95067.94
2019-05-26T23:07:01.959Z,95072.67
2019-05-26T23:09:29.357Z,95062.14
2019-05-26T23:11:56.689Z,95059.22
2019-05-26T23:14:24.013Z,95059.44
2019-05-26T23:16:51.279Z,95052.67
2019-05-26T23:19:20.037Z,95060.48
2019-05-26T23:21:47.651Z,95054.42
2019-05-26T23:24:14.993Z,95056.09
2019-05-26T23:26:42.331Z,95050.92
2019-05-26T23:29:09.652Z,95048.98
2019-05-26T23:31:36.954Z,95049.96
2019-05-26T23:34:04.270Z,95050.53
2019-05-26T23:36:31.589Z,95050.52
2019-05-26T23:38:58.925Z,95045.01
2019-05-26T23:41:26.213Z,95042.09
2019-05-26T23:43:53.515Z,95048.05
2019-05-26T23:46:20.809Z,95039.73
2019-05-26T23:48:48.139Z,95041.81
2019-05-26T23:51:15.479Z,95040.50
2019-05-26T23:53:42.769Z,95038.00
2019-05-26T23:56:10.148Z,95038.84
2019-05-26T23:58:37.445Z,95037.44
